createdAt,value
2022-08-05T00:00:23.644Z,21.87
2022-08-05T00:02:07.603Z,21.84
2022-08-05T00:03:39.870Z,21.79
2022-08-05T00:06:02.632Z,21.75
2022-08-05T00:07:27.193Z,21.71
2022-08-05T00:08:58.231Z,21.73
2022-08-05T00:10:30.116Z,21.68
2022-08-05T00:12:01.978Z,21.67
2022-08-05T00:13:39.153Z,21.64
2022-08-05T00:15:54.495Z,21.64
2022-08-05T00:17:03.535Z,21.65
2022-08-05T00:18:38.698Z,21.62
2022-08-05T00:20:10.826Z,21.61
2022-08-05T00:21:43.155Z,21.61
2022-08-05T00:23:15.211Z,21.58
2022-08-05T00:24:47.651Z,21.58
2022-08-05T00:26:27.464Z,21.57
2022-08-05T00:27:59.996Z,21.56
2022-08-05T00:29:37.867Z,21.58
2022-08-05T00:31:10.924Z,21.54
2022-08-05T00:32:42.702Z,21.55
2022-08-05T00:34:54.617Z,21.52
2022-08-05T00:36:16.565Z,21.53
2022-08-05T00:37:58.839Z,21.52
2022-08-05T00:39:37.100Z,21.53
2022-08-05T00:41:27.596Z,21.50
2022-08-05T00:43:19.801Z,21.51
2022-08-05T00:44:51.682Z,21.47
2022-08-05T00:46:36.861Z,21.50
2022-08-05T00:48:18.172Z,21.51
2022-08-05T00:49:59.521Z,21.50
2022-08-05T00:51:50.292Z,21.48
2022-08-05T00:54:01.110Z,21.48
2022-08-05T00:55:15.979Z,21.49
2022-08-05T00:56:51.401Z,21.48
2022-08-05T00:58:27.388Z,21.48
2022-08-05T00:59:59.540Z,21.50
2022-08-05T01:01:42.574Z,21.48
2022-08-05T01:03:22.594Z,21.46
2022-08-05T01:04:55.223Z,21.49
2022-08-05T01:06:32.527Z,21.50
2022-08-05T01:08:41.410Z,21.52
2022-08-05T01:09:57.150Z,21.52
2022-08-05T01:11:37.239Z,21.54
2022-08-05T01:13:19.507Z,21.53
2022-08-05T01:15:07.073Z,21.47
2022-08-05T01:17:39.990Z,21.45
2022-08-05T01:19:36.684Z,21.47
2022-08-05T01:21:40.738Z,21.44
2022-08-05T01:23:34.699Z,21.45
2022-08-05T01:25:15.963Z,21.45
2022-08-05T01:27:17.966Z,21.45
2022-08-05T01:29:13.101Z,21.45
2022-08-05T01:30:55.531Z,21.47
2022-08-05T01:32:28.401Z,21.46
2022-08-05T01:34:03.706Z,21.47
2022-08-05T01:35:51.919Z,21.47
2022-08-05T01:37:37.680Z,21.52
2022-08-05T01:39:45.589Z,21.53
2022-08-05T01:41:09.496Z,21.52
2022-08-05T01:42:45.394Z,21.55
2022-08-05T01:44:19.863Z,21.59
2022-08-05T01:45:56.612Z,21.61
2022-08-05T01:47:38.868Z,21.59
2022-08-05T01:49:24.101Z,21.52
2022-08-05T01:51:12.502Z,21.57
2022-08-05T01:52:50.059Z,21.56
2022-08-05T01:54:24.633Z,21.56
2022-08-05T01:56:04.542Z,21.56
2022-08-05T01:58:13.647Z,21.56
2022-08-05T01:59:34.044Z,21.54
2022-08-05T02:01:06.829Z,21.55
2022-08-05T02:02:51.088Z,21.56
2022-08-05T02:04:28.860Z,21.58
2022-08-05T02:06:33.687Z,21.56
2022-08-05T02:08:13.857Z,21.50
2022-08-05T02:09:57.755Z,21.47
2022-08-05T02:11:52.562Z,21.42
2022-08-05T02:13:36.499Z,21.34
2022-08-05T02:15:33.556Z,21.30
2022-08-05T02:17:17.011Z,21.27
2022-08-05T02:19:21.127Z,21.21
2022-08-05T02:20:58.965Z,21.17
2022-08-05T02:22:33.765Z,21.09
2022-08-05T02:24:08.803Z,21.08
2022-08-05T02:25:50.182Z,21.04
2022-08-05T02:27:29.837Z,21.03
2022-08-05T02:29:26.151Z,20.99
2022-08-05T02:31:23.882Z,20.96
2022-08-05T02:32:56.291Z,20.93
2022-08-05T02:34:32.248Z,20.89
2022-08-05T02:36:05.610Z,20.85
2022-08-05T02:37:43.075Z,20.82
2022-08-05T02:39:21.691Z,20.80
2022-08-05T02:40:54.532Z,20.77
2022-08-05T02:42:31.952Z,20.75
2022-08-05T02:44:12.110Z,20.71
2022-08-05T02:45:52.109Z,20.69
2022-08-05T02:47:25.944Z,20.70
2022-08-05T02:49:18.341Z,20.67
2022-08-05T02:50:55.387Z,20.65
2022-08-05T02:52:30.482Z,20.66
2022-08-05T02:54:03.465Z,20.66
2022-08-05T02:55:54.540Z,20.63
2022-08-05T02:58:12.160Z,20.63
2022-08-05T02:59:20.477Z,20.65
2022-08-05T03:01:02.880Z,20.63
2022-08-05T03:02:40.061Z,20.63
2022-08-05T03:04:14.546Z,20.65
2022-08-05T03:06:53.819Z,20.63
2022-08-05T03:08:07.185Z,20.65
2022-08-05T03:09:38.231Z,20.65
2022-08-05T03:11:54.998Z,20.64
2022-08-05T03:13:16.910Z,20.63
2022-08-05T03:14:48.867Z,20.62
2022-08-05T03:16:21.742Z,20.64
2022-08-05T03:17:57.585Z,20.63
2022-08-05T03:19:34.231Z,20.63
2022-08-05T03:21:08.235Z,20.65
2022-08-05T03:22:46.887Z,20.65
2022-08-05T03:24:29.522Z,20.69
2022-08-05T03:26:30.368Z,20.68
2022-08-05T03:27:59.804Z,20.69
2022-08-05T03:29:44.471Z,20.69
2022-08-05T03:31:41.493Z,20.70
2022-08-05T03:33:10.001Z,20.72
2022-08-05T03:34:50.366Z,20.69
2022-08-05T03:36:30.221Z,20.67
2022-08-05T03:38:10.126Z,20.67
2022-08-05T03:40:01.421Z,20.72
2022-08-05T03:41:45.166Z,20.73
2022-08-05T03:44:09.236Z,20.73
2022-08-05T03:45:22.196Z,20.70
2022-08-05T03:46:55.716Z,20.71
2022-08-05T03:48:29.324Z,20.73
2022-08-05T03:50:01.297Z,20.69
2022-08-05T03:52:36.872Z,20.69
2022-08-05T03:55:54.145Z,20.71
2022-08-05T03:56:30.653Z,20.72
2022-08-05T03:58:10.885Z,20.70
2022-08-05T03:59:46.967Z,20.69
2022-08-05T04:01:32.328Z,20.70
2022-08-05T04:03:05.922Z,20.68
2022-08-05T04:04:38.285Z,20.66
2022-08-05T04:06:10.931Z,20.63
2022-08-05T04:07:58.343Z,20.62
2022-08-05T04:09:31.113Z,20.60
2022-08-05T04:11:09.988Z,20.57
2022-08-05T04:12:45.070Z,20.59
2022-08-05T04:14:18.172Z,20.55
2022-08-05T04:16:02.830Z,20.51
2022-08-05T04:17:55.898Z,20.52
2022-08-05T04:19:28.958Z,20.53
2022-08-05T04:21:01.081Z,20.53
2022-08-05T04:22:32.966Z,20.53
2022-08-05T04:24:08.911Z,20.51
2022-08-05T04:26:00.589Z,20.47
2022-08-05T04:27:42.206Z,20.51
2022-08-05T04:29:27.359Z,20.54
2022-08-05T04:31:01.047Z,20.52
2022-08-05T04:32:33.557Z,20.53
2022-08-05T04:34:33.117Z,20.55
2022-08-05T04:36:11.095Z,20.55
2022-08-05T04:38:01.969Z,20.53
2022-08-05T04:39:38.145Z,20.48
2022-08-05T04:41:11.219Z,20.48
2022-08-05T04:42:43.147Z,20.49
2022-08-05T04:44:21.525Z,20.48
2022-08-05T04:46:01.831Z,20.47
2022-08-05T04:47:42.736Z,20.48
2022-08-05T04:49:18.990Z,20.44
2022-08-05T04:51:01.711Z,20.41
2022-08-05T04:52:35.707Z,20.33
2022-08-05T04:54:07.500Z,20.31
2022-08-05T04:56:14.783Z,20.32
2022-08-05T04:57:37.286Z,20.31
2022-08-05T04:59:21.466Z,20.27
2022-08-05T05:00:55.793Z,20.23
2022-08-05T05:02:37.084Z,20.21
2022-08-05T05:04:13.027Z,20.16
2022-08-05T05:06:35.842Z,20.11
2022-08-05T05:07:37.052Z,20.09
2022-08-05T05:09:18.382Z,20.07
2022-08-05T05:10:56.114Z,20.05
2022-08-05T05:12:28.264Z,19.98
2022-08-05T05:14:00.141Z,19.93
2022-08-05T05:15:57.003Z,19.85
2022-08-05T05:17:55.531Z,19.81
2022-08-05T05:19:18.986Z,19.76
2022-08-05T05:20:51.465Z,19.77
2022-08-05T05:22:26.333Z,19.72
2022-08-05T05:24:02.889Z,19.67
2022-08-05T05:25:41.909Z,19.68
2022-08-05T05:27:16.021Z,19.67
2022-08-05T05:28:49.244Z,19.64
2022-08-05T05:30:29.334Z,19.61
2022-08-05T05:32:03.690Z,19.59
2022-08-05T05:33:58.597Z,19.54
2022-08-05T05:35:34.302Z,19.52
2022-08-05T05:37:10.014Z,19.47
2022-08-05T05:38:42.254Z,19.45
2022-08-05T05:40:17.121Z,19.44
2022-08-05T05:41:54.352Z,19.44
2022-08-05T05:43:57.174Z,19.42
2022-08-05T05:45:19.696Z,19.42
2022-08-05T05:46:52.026Z,19.42
2022-08-05T05:48:27.329Z,19.41
2022-08-05T05:50:01.714Z,19.42
2022-08-05T05:51:50.446Z,19.42
2022-08-05T05:53:22.982Z,19.41
2022-08-05T05:54:55.692Z,19.39
2022-08-05T05:56:32.764Z,19.40
2022-08-05T05:58:05.965Z,19.39
2022-08-05T05:59:40.370Z,19.39
2022-08-05T06:01:15.179Z,19.39
2022-08-05T06:02:49.639Z,19.39
2022-08-05T06:04:23.693Z,19.39
2022-08-05T06:05:55.762Z,19.40
2022-08-05T06:07:41.937Z,19.40
2022-08-05T06:09:17.452Z,19.36
2022-08-05T06:10:57.442Z,19.34
2022-08-05T06:12:29.311Z,19.33
2022-08-05T06:14:02.494Z,19.23
2022-08-05T06:16:31.610Z,19.10
2022-08-05T06:17:31.030Z,19.08
2022-08-05T06:19:05.743Z,19.06
2022-08-05T06:20:39.400Z,19.07
2022-08-05T06:22:19.131Z,19.07
2022-08-05T06:23:50.998Z,19.10
2022-08-05T06:25:25.305Z,19.13
2022-08-05T06:28:08.724Z,19.12
2022-08-05T06:29:42.965Z,19.12
2022-08-05T06:30:58.472Z,19.12
2022-08-05T06:32:30.451Z,19.14
2022-08-05T06:34:07.839Z,19.17
2022-08-05T06:36:03.497Z,19.11
2022-08-05T06:37:56.251Z,19.09
2022-08-05T06:39:26.775Z,19.02
2022-08-05T06:40:59.560Z,19.01
2022-08-05T06:42:31.641Z,19.03
2022-08-05T06:44:03.641Z,19.04
2022-08-05T06:45:44.634Z,19.07
2022-08-05T06:48:11.758Z,19.06
2022-08-05T06:49:59.830Z,19.04
2022-08-05T06:51:21.826Z,19.07
2022-08-05T06:53:03.717Z,19.09
2022-08-05T06:54:43.205Z,19.10
2022-08-05T06:56:26.535Z,19.13
2022-08-05T06:58:19.815Z,19.12
2022-08-05T06:59:57.913Z,19.11
2022-08-05T07:01:32.776Z,19.14
2022-08-05T07:03:04.829Z,19.13
2022-08-05T07:04:41.566Z,19.14
2022-08-05T07:06:15.303Z,19.14
2022-08-05T07:07:49.091Z,19.14
2022-08-05T07:09:21.042Z,19.12
2022-08-05T07:10:57.092Z,19.13
2022-08-05T07:12:49.069Z,19.14
2022-08-05T07:14:39.823Z,19.17
2022-08-05T07:17:59.044Z,19.17
2022-08-05T07:18:27.283Z,19.21
2022-08-05T07:20:32.310Z,19.15
2022-08-05T07:22:00.000Z,19.20
2022-08-05T07:23:32.772Z,19.20
2022-08-05T07:25:23.752Z,19.22
2022-08-05T07:26:57.410Z,19.20
2022-08-05T07:28:29.385Z,19.20
2022-08-05T07:30:27.919Z,19.18
2022-08-05T07:31:56.407Z,19.23
2022-08-05T07:33:37.168Z,19.26
2022-08-05T07:36:03.458Z,19.31
2022-08-05T07:37:02.213Z,19.36
2022-08-05T07:38:43.684Z,19.40
2022-08-05T07:40:32.048Z,19.41
2022-08-05T07:42:13.039Z,19.44
2022-08-05T07:43:46.894Z,19.47
2022-08-05T07:45:19.220Z,19.51
2022-08-05T07:47:11.111Z,19.51
2022-08-05T07:49:02.529Z,19.49
2022-08-05T07:50:36.772Z,19.48
2022-08-05T07:52:11.608Z,19.48
2022-08-05T07:53:50.632Z,19.47
2022-08-05T07:56:04.780Z,19.46
2022-08-05T07:57:41.524Z,19.49
2022-08-05T07:59:08.603Z,19.48
2022-08-05T08:00:40.720Z,19.51
2022-08-05T08:02:16.533Z,19.57
2022-08-05T08:03:49.093Z,19.56
2022-08-05T08:05:26.821Z,19.58
2022-08-05T08:07:01.030Z,19.62
2022-08-05T08:08:37.460Z,19.67
2022-08-05T08:10:10.461Z,19.71
2022-08-05T08:11:47.440Z,19.72
2022-08-05T08:13:22.169Z,19.77
2022-08-05T08:15:03.571Z,19.83
2022-08-05T08:16:51.080Z,19.91
2022-08-05T08:18:25.195Z,20.01
2022-08-05T08:20:21.143Z,20.06
2022-08-05T08:21:49.074Z,20.15
2022-08-05T08:24:02.264Z,20.22
2022-08-05T08:25:15.707Z,20.25
2022-08-05T08:26:50.924Z,20.22
2022-08-05T08:28:36.205Z,20.23
2022-08-05T08:30:30.027Z,20.30
2022-08-05T08:32:04.064Z,20.44
2022-08-05T08:33:38.266Z,20.50
2022-08-05T08:35:13.506Z,20.53
2022-08-05T08:36:49.047Z,20.59
2022-08-05T08:38:35.362Z,20.67
2022-08-05T08:40:08.547Z,20.79
2022-08-05T08:41:50.873Z,20.83
2022-08-05T08:45:20.945Z,20.84
2022-08-05T08:45:27.150Z,20.87
2022-08-05T08:47:03.319Z,20.94
2022-08-05T08:49:07.511Z,21.01
2022-08-05T08:51:03.563Z,21.06
2022-08-05T08:52:39.837Z,21.07
2022-08-05T08:54:13.796Z,21.10
2022-08-05T08:56:02.948Z,21.14
2022-08-05T08:57:42.300Z,21.19
2022-08-05T08:59:33.396Z,21.23
2022-08-05T09:01:07.489Z,21.27
2022-08-05T09:02:45.045Z,21.34
2022-08-05T09:04:19.890Z,21.35
2022-08-05T09:06:07.590Z,21.31
2022-08-05T09:07:57.070Z,21.33
2022-08-05T09:09:34.830Z,21.33
2022-08-05T09:11:08.593Z,21.29
2022-08-05T09:12:44.605Z,21.31
2022-08-05T09:14:58.881Z,21.29
2022-08-05T09:16:17.157Z,21.29
2022-08-05T09:17:50.070Z,21.31
2022-08-05T09:19:27.888Z,21.32
2022-08-05T09:21:11.508Z,21.36
2022-08-05T09:23:05.578Z,21.35
2022-08-05T09:24:40.072Z,21.37
2022-08-05T09:26:20.780Z,21.39
2022-08-05T09:28:04.857Z,21.46
2022-08-05T09:29:48.035Z,21.53
2022-08-05T09:31:43.562Z,21.57
2022-08-05T09:33:15.278Z,21.72
2022-08-05T09:34:53.813Z,21.83
2022-08-05T09:36:38.885Z,21.88
2022-08-05T09:38:27.525Z,21.95
2022-08-05T09:40:01.511Z,22.03
2022-08-05T09:41:38.294Z,22.09
2022-08-05T09:43:41.920Z,22.13
2022-08-05T09:45:17.791Z,22.15
2022-08-05T09:47:20.638Z,22.15
2022-08-05T09:49:06.617Z,22.19
2022-08-05T09:50:44.579Z,22.28
2022-08-05T09:52:27.656Z,22.29
2022-08-05T09:54:00.543Z,22.33
2022-08-05T09:55:56.860Z,22.45
2022-08-05T09:57:35.401Z,22.53
2022-08-05T09:59:17.060Z,22.60
2022-08-05T10:01:00.601Z,22.67
2022-08-05T10:02:38.666Z,22.70
2022-08-05T10:04:13.833Z,22.78
2022-08-05T10:06:07.536Z,22.76
2022-08-05T10:08:35.081Z,22.73
2022-08-05T10:10:14.062Z,22.64
2022-08-05T10:11:48.229Z,22.63
2022-08-05T10:13:45.779Z,22.58
2022-08-05T10:15:27.789Z,22.43
2022-08-05T10:17:37.641Z,22.40
2022-08-05T10:19:09.180Z,22.39
2022-08-05T10:20:44.059Z,22.38
2022-08-05T10:22:30.040Z,22.32
2022-08-05T10:24:07.549Z,22.27
2022-08-05T10:25:43.047Z,22.27
2022-08-05T10:27:16.761Z,22.23
2022-08-05T10:28:48.853Z,22.17
2022-08-05T10:31:20.240Z,22.19
2022-08-05T10:32:53.220Z,22.15
2022-08-05T10:34:10.398Z,22.18
2022-08-05T10:35:44.234Z,22.18
2022-08-05T10:37:16.799Z,22.16
2022-08-05T10:38:50.180Z,22.18
2022-08-05T10:40:46.222Z,22.23
2022-08-05T10:42:34.269Z,22.30
2022-08-05T10:44:13.255Z,22.34
2022-08-05T10:46:06.699Z,22.61
2022-08-05T10:47:46.999Z,22.87
2022-08-05T10:49:48.837Z,23.35
2022-08-05T10:51:28.336Z,23.71
2022-08-05T10:53:01.206Z,24.00
2022-08-05T10:55:03.231Z,24.07
2022-08-05T10:56:49.479Z,24.21
2022-08-05T10:58:47.895Z,24.34
2022-08-05T11:00:27.470Z,24.61
2022-08-05T11:02:14.803Z,24.90
2022-08-05T11:04:17.903Z,24.92
2022-08-05T11:06:16.252Z,25.13
2022-08-05T11:08:04.675Z,25.50
2022-08-05T11:09:49.942Z,25.81
2022-08-05T11:11:44.831Z,25.97
2022-08-05T11:13:57.991Z,26.29
2022-08-05T11:16:01.391Z,26.33
2022-08-05T11:18:07.685Z,26.22
2022-08-05T11:20:11.215Z,25.81
2022-08-05T11:21:48.831Z,25.69
2022-08-05T11:24:02.644Z,25.65
2022-08-05T11:26:04.382Z,25.69
2022-08-05T11:27:37.050Z,25.67
2022-08-05T11:29:35.415Z,25.68
2022-08-05T11:31:09.111Z,25.61
2022-08-05T11:32:41.758Z,25.52
2022-08-05T11:34:37.012Z,25.41
2022-08-05T11:36:10.416Z,25.29
2022-08-05T11:38:29.409Z,25.12
2022-08-05T11:40:00.448Z,24.90
2022-08-05T11:42:01.507Z,24.76
2022-08-05T11:44:00.989Z,24.51
2022-08-05T11:46:15.551Z,24.38
2022-08-05T11:47:18.648Z,24.29
2022-08-05T11:48:55.028Z,24.18
2022-08-05T11:50:27.760Z,24.16
2022-08-05T11:51:59.787Z,24.09
2022-08-05T11:53:33.674Z,24.00
2022-08-05T11:55:13.358Z,24.01
2022-08-05T11:56:52.948Z,24.01
2022-08-05T11:58:52.948Z,23.88
2022-08-05T12:00:30.246Z,23.91
2022-08-05T12:02:06.844Z,23.90
2022-08-05T12:03:57.382Z,23.90
2022-08-05T12:05:36.403Z,23.88
2022-08-05T12:07:14.102Z,23.90
2022-08-05T12:08:53.404Z,23.88
2022-08-05T12:10:43.018Z,23.91
2022-08-05T12:12:23.008Z,24.02
2022-08-05T12:14:04.270Z,24.12
2022-08-05T12:15:38.246Z,24.28
2022-08-05T12:18:03.003Z,24.38
2022-08-05T12:19:08.771Z,24.52
2022-08-05T12:20:41.718Z,24.66
2022-08-05T12:22:19.993Z,24.80
2022-08-05T12:24:04.757Z,25.03
2022-08-05T12:25:56.506Z,25.19
2022-08-05T12:27:33.237Z,25.17
2022-08-05T12:29:09.641Z,25.21
2022-08-05T12:30:49.936Z,25.20
2022-08-05T12:32:21.887Z,25.23
2022-08-05T12:33:57.494Z,25.25
2022-08-05T12:35:38.574Z,25.31
2022-08-05T12:37:26.679Z,25.40
2022-08-05T12:39:05.453Z,25.53
2022-08-05T12:40:37.504Z,25.72
2022-08-05T12:42:22.001Z,25.93
2022-08-05T12:44:02.128Z,26.10
2022-08-05T12:45:42.594Z,26.22
2022-08-05T12:47:28.588Z,26.32
2022-08-05T12:49:13.772Z,26.36
2022-08-05T12:52:09.897Z,26.36
2022-08-05T12:53:16.660Z,26.28
2022-08-05T12:54:52.112Z,26.21
2022-08-05T12:56:35.411Z,26.10
2022-08-05T12:58:48.268Z,26.18
2022-08-05T13:01:57.535Z,26.18
2022-08-05T13:02:07.487Z,26.11
2022-08-05T13:03:42.049Z,25.94
2022-08-05T13:05:15.418Z,25.84
2022-08-05T13:06:51.891Z,25.85
2022-08-05T13:08:23.972Z,25.73
2022-08-05T13:09:59.113Z,25.64
2022-08-05T13:12:01.829Z,25.60
2022-08-05T13:14:05.668Z,25.64
2022-08-05T13:15:24.190Z,25.75
2022-08-05T13:16:57.886Z,25.77
2022-08-05T13:18:39.743Z,25.83
2022-08-05T13:20:20.350Z,25.83
2022-08-05T13:21:56.722Z,25.89
2022-08-05T13:23:28.742Z,25.81
2022-08-05T13:25:18.788Z,25.82
2022-08-05T13:26:56.157Z,25.84
2022-08-05T13:28:32.380Z,25.84
2022-08-05T13:30:35.882Z,25.96
2022-08-05T13:32:03.912Z,26.02
2022-08-05T13:34:21.749Z,26.10
2022-08-05T13:35:43.365Z,26.20
2022-08-05T13:37:27.221Z,26.34
2022-08-05T13:39:08.388Z,26.46
2022-08-05T13:40:56.787Z,26.58
2022-08-05T13:42:28.630Z,26.70
2022-08-05T13:44:00.617Z,26.76
2022-08-05T13:45:43.022Z,26.83
2022-08-05T13:47:34.687Z,26.81
2022-08-05T13:49:11.879Z,26.81
2022-08-05T13:50:44.022Z,26.84
2022-08-05T13:52:18.470Z,26.94
2022-08-05T13:53:50.268Z,27.03
2022-08-05T13:55:40.778Z,27.00
2022-08-05T13:57:14.977Z,27.08
2022-08-05T13:58:53.044Z,27.10
2022-08-05T14:00:26.985Z,27.04
2022-08-05T14:02:00.802Z,27.04
2022-08-05T14:03:32.912Z,27.13
2022-08-05T14:05:11.438Z,27.10
2022-08-05T14:06:47.554Z,27.03
2022-08-05T14:08:27.663Z,27.13
2022-08-05T14:10:08.776Z,27.01
2022-08-05T14:12:00.391Z,27.07
2022-08-05T14:13:33.537Z,27.06
2022-08-05T14:16:04.769Z,27.16
2022-08-05T14:16:59.073Z,27.15
2022-08-05T14:18:32.674Z,27.09
2022-08-05T14:20:07.795Z,27.10
2022-08-05T14:22:09.901Z,27.15
2022-08-05T14:23:36.686Z,27.16
2022-08-05T14:25:19.121Z,27.11
2022-08-05T14:27:15.683Z,27.04
2022-08-05T14:28:52.328Z,27.00
2022-08-05T14:30:27.874Z,27.09
2022-08-05T14:32:13.162Z,27.21
2022-08-05T14:33:59.174Z,27.33
2022-08-05T14:35:36.916Z,27.46
2022-08-05T14:37:21.678Z,27.45
2022-08-05T14:38:57.913Z,27.38
2022-08-05T14:40:29.834Z,27.27
2022-08-05T14:42:19.485Z,27.32
2022-08-05T14:44:01.696Z,27.35
2022-08-05T14:45:41.797Z,27.31
2022-08-05T14:47:13.977Z,27.30
2022-08-05T14:48:49.824Z,27.23
2022-08-05T14:50:21.965Z,27.17
2022-08-05T14:51:57.133Z,27.22
2022-08-05T14:53:30.234Z,27.18
2022-08-05T14:55:02.129Z,27.26
2022-08-05T14:56:34.779Z,27.32
2022-08-05T14:58:11.226Z,27.44
2022-08-05T14:59:44.378Z,27.47
2022-08-05T15:01:47.105Z,27.52
2022-08-05T15:03:12.581Z,27.42
2022-08-05T15:04:47.743Z,27.42
2022-08-05T15:06:20.325Z,27.48
2022-08-05T15:08:17.909Z,27.60
2022-08-05T15:10:05.462Z,27.62
2022-08-05T15:11:50.894Z,27.62
2022-08-05T15:13:28.651Z,27.57
2022-08-05T15:15:54.268Z,27.51
2022-08-05T15:17:44.660Z,27.38
2022-08-05T15:19:03.763Z,27.52
2022-08-05T15:20:35.931Z,27.53
2022-08-05T15:22:08.934Z,27.57
2022-08-05T15:23:40.892Z,27.53
2022-08-05T15:25:14.318Z,27.45
2022-08-05T15:26:46.582Z,27.39
2022-08-05T15:28:22.237Z,27.38
2022-08-05T15:29:59.805Z,27.29
2022-08-05T15:31:34.899Z,27.20
2022-08-05T15:33:07.075Z,27.29
2022-08-05T15:34:39.482Z,27.34
2022-08-05T15:36:17.617Z,27.19
2022-08-05T15:38:34.854Z,27.13
2022-08-05T15:40:58.277Z,27.05
2022-08-05T15:41:55.666Z,26.93
2022-08-05T15:43:30.570Z,26.94
2022-08-05T15:45:18.972Z,27.09
2022-08-05T15:47:11.805Z,27.10
2022-08-05T15:48:53.113Z,26.97
2022-08-05T15:50:33.036Z,26.99
2022-08-05T15:52:16.519Z,26.98
2022-08-05T15:53:52.013Z,26.96
2022-08-05T15:55:24.469Z,27.00
2022-08-05T15:56:57.123Z,27.04
2022-08-05T15:58:29.417Z,26.94
2022-08-05T16:00:08.896Z,26.83
2022-08-05T16:01:52.551Z,26.78
2022-08-05T16:03:27.345Z,26.59
2022-08-05T16:05:00.530Z,26.69
2022-08-05T16:06:32.404Z,26.60
2022-08-05T16:08:04.504Z,26.53
2022-08-05T16:09:36.699Z,26.54
2022-08-05T16:11:13.501Z,26.55
2022-08-05T16:12:46.387Z,26.56
2022-08-05T16:14:18.661Z,26.52
2022-08-05T16:15:52.003Z,26.53
2022-08-05T16:17:24.508Z,26.51
2022-08-05T16:18:57.471Z,26.41
2022-08-05T16:20:32.440Z,26.32
2022-08-05T16:22:05.657Z,26.26
2022-08-05T16:23:53.595Z,26.27
2022-08-05T16:25:32.229Z,26.28
2022-08-05T16:27:07.282Z,26.21
2022-08-05T16:28:41.407Z,26.23
2022-08-05T16:30:23.253Z,26.33
2022-08-05T16:31:58.033Z,26.41
2022-08-05T16:33:41.641Z,26.31
2022-08-05T16:35:13.838Z,26.29
2022-08-05T16:36:48.542Z,26.33
2022-08-05T16:38:25.229Z,26.29
2022-08-05T16:40:04.606Z,26.23
2022-08-05T16:42:13.615Z,26.17
2022-08-05T16:43:35.125Z,26.10
2022-08-05T16:46:04.677Z,26.06
2022-08-05T16:46:59.742Z,26.05
2022-08-05T16:48:34.065Z,26.00
2022-08-05T16:50:10.177Z,26.06
2022-08-05T16:51:51.084Z,25.99
2022-08-05T16:53:32.117Z,25.98
2022-08-05T16:55:05.088Z,25.91
2022-08-05T16:56:37.115Z,25.85
2022-08-05T16:58:19.663Z,25.75
2022-08-05T17:00:00.318Z,25.58
2022-08-05T17:01:54.541Z,25.53
2022-08-05T17:03:27.940Z,25.44
2022-08-05T17:04:59.864Z,25.40
2022-08-05T17:06:32.065Z,25.34
2022-08-05T17:08:04.149Z,25.38
2022-08-05T17:09:57.612Z,25.28
2022-08-05T17:11:31.315Z,25.21
2022-08-05T17:13:21.340Z,25.20
2022-08-05T17:15:10.043Z,25.14
2022-08-05T17:16:47.600Z,25.05
2022-08-05T17:18:27.744Z,25.01
2022-08-05T17:20:00.725Z,25.01
2022-08-05T17:21:35.713Z,24.92
2022-08-05T17:23:08.697Z,24.82
2022-08-05T17:25:00.812Z,24.78
2022-08-05T17:26:32.881Z,24.82
2022-08-05T17:28:09.807Z,24.76
2022-08-05T17:29:41.908Z,24.81
2022-08-05T17:31:57.033Z,24.68
2022-08-05T17:33:21.120Z,24.58
2022-08-05T17:34:54.203Z,24.53
2022-08-05T17:36:33.938Z,24.58
2022-08-05T17:38:08.296Z,24.54
2022-08-05T17:39:40.343Z,24.40
2022-08-05T17:42:16.770Z,24.34
2022-08-05T17:43:10.084Z,24.34
2022-08-05T17:44:42.205Z,24.31
2022-08-05T17:46:23.792Z,24.24
2022-08-05T17:47:56.336Z,24.17
2022-08-05T17:49:28.294Z,24.16
2022-08-05T17:51:21.815Z,24.10
2022-08-05T17:52:54.988Z,23.99
2022-08-05T17:54:26.973Z,23.97
2022-08-05T17:55:59.909Z,23.90
2022-08-05T17:57:34.738Z,23.85
2022-08-05T17:59:09.674Z,23.79
2022-08-05T18:00:47.161Z,23.72
2022-08-05T18:02:20.186Z,23.67
2022-08-05T18:04:03.531Z,23.58
2022-08-05T18:05:39.203Z,23.45
2022-08-05T18:07:12.588Z,23.45
2022-08-05T18:08:52.612Z,23.35
2022-08-05T18:10:27.299Z,23.34
2022-08-05T18:12:07.234Z,23.29
2022-08-05T18:13:44.356Z,23.26
2022-08-05T18:15:18.397Z,23.22
2022-08-05T18:16:51.868Z,23.21
2022-08-05T18:18:26.928Z,23.20
2022-08-05T18:19:59.216Z,23.15
2022-08-05T18:22:07.213Z,23.11
2022-08-05T18:23:25.077Z,23.07
2022-08-05T18:25:02.206Z,22.94
2022-08-05T18:26:34.099Z,22.89
2022-08-05T18:28:07.521Z,22.82
2022-08-05T18:29:41.567Z,22.80
2022-08-05T18:31:13.518Z,22.76
2022-08-05T18:32:53.437Z,22.72
2022-08-05T18:34:41.327Z,22.67
2022-08-05T18:36:15.442Z,22.60
2022-08-05T18:37:47.680Z,22.58
2022-08-05T18:40:29.859Z,22.50
2022-08-05T18:41:56.161Z,22.43
2022-08-05T18:43:09.076Z,22.36
2022-08-05T18:44:51.433Z,22.34
2022-08-05T18:46:29.260Z,22.26
2022-08-05T18:48:01.225Z,22.26
2022-08-05T18:49:58.286Z,22.25
2022-08-05T18:52:06.651Z,22.24
2022-08-05T18:53:42.999Z,22.18
2022-08-05T18:55:22.228Z,22.14
2022-08-05T18:56:57.378Z,22.14
2022-08-05T18:58:29.280Z,22.10
2022-08-05T19:00:04.253Z,22.12
2022-08-05T19:01:48.101Z,22.05
2022-08-05T19:03:52.782Z,22.05
2022-08-05T19:06:13.416Z,22.03
2022-08-05T19:07:15.819Z,21.96
2022-08-05T19:08:47.832Z,21.94
2022-08-05T19:10:28.047Z,21.92
2022-08-05T19:12:03.764Z,21.83
2022-08-05T19:13:38.648Z,21.75
2022-08-05T19:15:57.819Z,21.71
2022-08-05T19:17:03.357Z,21.61
2022-08-05T19:18:38.384Z,21.59
2022-08-05T19:20:14.886Z,21.51
2022-08-05T19:21:47.295Z,21.44
2022-08-05T19:24:07.299Z,21.44
2022-08-05T19:25:29.635Z,21.40
2022-08-05T19:27:03.997Z,21.38
2022-08-05T19:28:41.498Z,21.32
2022-08-05T19:30:14.400Z,21.29
2022-08-05T19:31:51.136Z,21.28
2022-08-05T19:33:34.076Z,21.24
2022-08-05T19:35:08.462Z,21.19
2022-08-05T19:36:40.333Z,21.15
2022-08-05T19:38:14.457Z,21.11
2022-08-05T19:39:50.997Z,21.08
2022-08-05T19:42:03.360Z,21.04
2022-08-05T19:44:04.918Z,21.06
2022-08-05T19:45:08.342Z,21.07
2022-08-05T19:46:46.533Z,21.06
2022-08-05T19:48:18.368Z,21.01
2022-08-05T19:49:51.767Z,20.95
2022-08-05T19:52:06.037Z,20.88
2022-08-05T19:54:03.678Z,20.82
2022-08-05T19:56:14.416Z,20.77
2022-08-05T19:57:11.054Z,20.68
2022-08-05T19:58:54.076Z,20.63
2022-08-05T20:00:26.185Z,20.64
2022-08-05T20:01:58.026Z,20.57
2022-08-05T20:03:40.662Z,20.52
2022-08-05T20:05:16.280Z,20.53
2022-08-05T20:06:56.204Z,20.51
2022-08-05T20:08:28.172Z,20.47
2022-08-05T20:10:00.087Z,20.43
2022-08-05T20:11:32.037Z,20.37
2022-08-05T20:13:09.773Z,20.36
2022-08-05T20:14:41.995Z,20.32
2022-08-05T20:16:13.875Z,20.31
2022-08-05T20:17:51.654Z,20.22
2022-08-05T20:19:23.753Z,20.23
2022-08-05T20:21:08.467Z,20.14
2022-08-05T20:22:41.467Z,20.13
2022-08-05T20:24:16.167Z,20.16
2022-08-05T20:25:48.137Z,20.15
2022-08-05T20:27:27.380Z,20.11
2022-08-05T20:29:26.819Z,20.10
2022-08-05T20:30:59.686Z,20.07
2022-08-05T20:32:31.634Z,20.03
2022-08-05T20:34:05.080Z,20.00
2022-08-05T20:35:40.589Z,19.97
2022-08-05T20:37:24.208Z,19.94
2022-08-05T20:39:13.030Z,19.92
2022-08-05T20:40:45.811Z,19.87
2022-08-05T20:42:22.449Z,19.83
2022-08-05T20:43:59.527Z,19.84
2022-08-05T20:45:56.286Z,19.79
2022-08-05T20:47:31.946Z,19.82
2022-08-05T20:49:06.274Z,19.76
2022-08-05T20:50:42.602Z,19.74
2022-08-05T20:52:17.560Z,19.68
2022-08-05T20:53:56.532Z,19.68
2022-08-05T20:55:56.757Z,19.64
2022-08-05T20:57:24.837Z,19.59
2022-08-05T20:59:18.893Z,19.57
2022-08-05T21:00:52.349Z,19.52
2022-08-05T21:02:28.837Z,19.46
2022-08-05T21:04:00.700Z,19.43
2022-08-05T21:05:38.336Z,19.40
2022-08-05T21:07:26.024Z,19.33
2022-08-05T21:09:17.894Z,19.30
2022-08-05T21:10:50.758Z,19.30
2022-08-05T21:12:22.659Z,19.24
2022-08-05T21:13:58.639Z,19.23
2022-08-05T21:15:33.733Z,19.22
2022-08-05T21:17:06.382Z,19.17
2022-08-05T21:18:38.589Z,19.15
2022-08-05T21:20:33.356Z,19.10
2022-08-05T21:22:06.112Z,19.07
2022-08-05T21:23:41.442Z,19.06
2022-08-05T21:25:13.370Z,19.03
2022-08-05T21:26:58.473Z,19.01
2022-08-05T21:28:30.985Z,18.95
2022-08-05T21:30:03.977Z,18.92
2022-08-05T21:31:41.241Z,18.86
2022-08-05T21:33:21.901Z,18.86
2022-08-05T21:35:16.748Z,18.85
2022-08-05T21:36:49.088Z,18.82
2022-08-05T21:38:20.970Z,18.85